sensor_id;sensor_type;location;lat;lon;timestamp;temperature;humidity
41664;DHT22;27353;50.906;7.248;2024-01-30T00:01:38;7.40;99.90
41664;DHT22;27353;50.906;7.248;2024-01-30T00:04:04;7.40;99.90
41664;DHT22;27353;50.906;7.248;2024-01-30T00:06:30;7.50;99.90
41664;DHT22;27353;50.906;7.248;2024-01-30T00:08:57;7.50;99.90
41664;DHT22;27353;50.906;7.248;2024-01-30T00:11:23;7.50;99.90
41664;DHT22;27353;50.906;7.248;2024-01-30T00:13:51;7.60;99.90
41664;DHT22;27353;50.906;7.248;2024-01-30T00:16:24;7.60;99.90
41664;DHT22;27353;50.906;7.248;2024-01-30T00:18:53;7.50;99.90
41664;DHT22;27353;50.906;7.248;2024-01-30T00:21:19;7.40;99.90
41664;DHT22;27353;50.906;7.248;2024-01-30T00:23:45;7.40;99.90
41664;DHT22;27353;50.906;7.248;2024-01-30T00:26:10;7.30;99.90
41664;DHT22;27353;50.906;7.248;2024-01-30T00:28:37;7.30;99.90
41664;DHT22;27353;50.906;7.248;2024-01-30T00:31:03;7.30;99.90
41664;DHT22;27353;50.906;7.248;2024-01-30T00:33:29;7.20;99.90
41664;DHT22;27353;50.906;7.248;2024-01-30T00:35:55;7.20;99.90
41664;DHT22;27353;50.906;7.248;2024-01-30T00:38:21;7.20;99.90
41664;DHT22;27353;50.906;7.248;2024-01-30T00:40:46;7.10;99.90
41664;DHT22;27353;50.906;7.248;2024-01-30T00:43:12;7.00;99.90
41664;DHT22;27353;50.906;7.248;2024-01-30T00:45:37;7.10;99.90
41664;DHT22;27353;50.906;7.248;2024-01-30T00:48:03;7.10;99.90
41664;DHT22;27353;50.906;7.248;2024-01-30T00:50:29;7.00;99.90
41664;DHT22;27353;50.906;7.248;2024-01-30T00:52:55;7.10;99.90
41664;DHT22;27353;50.906;7.248;2024-01-30T00:55:21;7.10;99.90
41664;DHT22;27353;50.906;7.248;2024-01-30T00:57:46;7.00;99.90
41664;DHT22;27353;50.906;7.248;2024-01-30T01:00:13;7.10;99.90
41664;DHT22;27353;50.906;7.248;2024-01-30T01:02:42;7.10;99.90
41664;DHT22;27353;50.906;7.248;2024-01-30T01:05:08;7.10;99.90
41664;DHT22;27353;50.906;7.248;2024-01-30T01:07:34;7.10;99.90
41664;DHT22;27353;50.906;7.248;2024-01-30T01:09:59;7.10;99.90
41664;DHT22;27353;50.906;7.248;2024-01-30T01:12:25;7.00;99.90
41664;DHT22;27353;50.906;7.248;2024-01-30T01:14:51;7.00;99.90
41664;DHT22;27353;50.906;7.248;2024-01-30T01:17:16;7.00;99.90
41664;DHT22;27353;50.906;7.248;2024-01-30T01:19:43;7.00;99.90
41664;DHT22;27353;50.906;7.248;2024-01-30T01:22:09;7.00;99.90
41664;DHT22;27353;50.906;7.248;2024-01-30T01:24:35;6.90;99.90
41664;DHT22;27353;50.906;7.248;2024-01-30T01:27:01;6.90;99.90
41664;DHT22;27353;50.906;7.248;2024-01-30T01:29:27;6.90;99.90
41664;DHT22;27353;50.906;7.248;2024-01-30T01:31:56;7.00;99.90
41664;DHT22;27353;50.906;7.248;2024-01-30T01:34:22;7.00;99.90
41664;DHT22;27353;50.906;7.248;2024-01-30T01:36:49;7.00;99.90
41664;DHT22;27353;50.906;7.248;2024-01-30T01:39:15;7.00;99.90
41664;DHT22;27353;50.906;7.248;2024-01-30T01:41:41;7.10;99.90
41664;DHT22;27353;50.906;7.248;2024-01-30T01:44:07;7.10;99.90
41664;DHT22;27353;50.906;7.248;2024-01-30T01:46:34;7.10;99.90
41664;DHT22;27353;50.906;7.248;2024-01-30T01:49:04;7.10;99.90
41664;DHT22;27353;50.906;7.248;2024-01-30T01:51:31;7.20;99.90
41664;DHT22;27353;50.906;7.248;2024-01-30T01:54:01;7.10;99.90
41664;DHT22;27353;50.906;7.248;2024-01-30T01:56:27;7.20;99.90
41664;DHT22;27353;50.906;7.248;2024-01-30T01:58:55;7.10;99.90
41664;DHT22;27353;50.906;7.248;2024-01-30T02:01:21;7.20;99.90
41664;DHT22;27353;50.906;7.248;2024-01-30T02:03:47;7.10;99.90
41664;DHT22;27353;50.906;7.248;2024-01-30T02:06:16;7.10;99.90
41664;DHT22;27353;50.906;7.248;2024-01-30T02:08:41;7.00;99.90
41664;DHT22;27353;50.906;7.248;2024-01-30T02:11:08;7.00;99.90
41664;DHT22;27353;50.906;7.248;2024-01-30T02:13:34;6.90;99.90
41664;DHT22;27353;50.906;7.248;2024-01-30T02:16:00;6.90;99.90
41664;DHT22;27353;50.906;7.248;2024-01-30T02:18:26;7.00;99.90
41664;DHT22;27353;50.906;7.248;2024-01-30T02:20:54;7.00;99.90
41664;DHT22;27353;50.906;7.248;2024-01-30T02:23:20;7.10;99.90
41664;DHT22;27353;50.906;7.248;2024-01-30T02:25:46;7.10;99.90
41664;DHT22;27353;50.906;7.248;2024-01-30T02:28:12;7.10;99.90
41664;DHT22;27353;50.906;7.248;2024-01-30T02:30:39;7.10;99.90
41664;DHT22;27353;50.906;7.248;2024-01-30T02:33:05;7.20;99.90
41664;DHT22;27353;50.906;7.248;2024-01-30T02:35:30;7.20;99.90
41664;DHT22;27353;50.906;7.248;2024-01-30T02:37:56;7.30;99.90
41664;DHT22;27353;50.906;7.248;2024-01-30T02:40:21;7.30;99.90
41664;DHT22;27353;50.906;7.248;2024-01-30T02:42:47;7.30;99.90
41664;DHT22;27353;50.906;7.248;2024-01-30T02:45:13;7.30;99.90
41664;DHT22;27353;50.906;7.248;2024-01-30T02:47:39;7.30;99.90
41664;DHT22;27353;50.906;7.248;2024-01-30T02:50:05;7.30;99.90
41664;DHT22;27353;50.906;7.248;2024-01-30T02:52:31;7.30;99.90
41664;DHT22;27353;50.906;7.248;2024-01-30T02:54:57;7.30;99.90
41664;DHT22;27353;50.906;7.248;2024-01-30T02:57:22;7.40;99.90
41664;DHT22;27353;50.906;7.248;2024-01-30T02:59:48;7.30;99.90
41664;DHT22;27353;50.906;7.248;2024-01-30T03:02:13;7.30;99.90
41664;DHT22;27353;50.906;7.248;2024-01-30T03:04:41;7.30;99.90
41664;DHT22;27353;50.906;7.248;2024-01-30T03:07:07;7.30;99.90
41664;DHT22;27353;50.906;7.248;2024-01-30T03:09:32;7.30;99.90
41664;DHT22;27353;50.906;7.248;2024-01-30T03:11:58;7.30;99.90
41664;DHT22;27353;50.906;7.248;2024-01-30T03:14:24;7.30;99.90
41664;DHT22;27353;50.906;7.248;2024-01-30T03:16:50;7.20;99.90
41664;DHT22;27353;50.906;7.248;2024-01-30T03:19:15;7.20;99.90
41664;DHT22;27353;50.906;7.248;2024-01-30T03:21:41;7.20;99.90
41664;DHT22;27353;50.906;7.248;2024-01-30T03:24:06;7.20;99.90
41664;DHT22;27353;50.906;7.248;2024-01-30T03:26:32;7.10;99.90
41664;DHT22;27353;50.906;7.248;2024-01-30T03:28:57;7.20;99.90
41664;DHT22;27353;50.906;7.248;2024-01-30T03:31:23;7.10;99.90
41664;DHT22;27353;50.906;7.248;2024-01-30T03:33:49;7.10;99.90
41664;DHT22;27353;50.906;7.248;2024-01-30T03:36:15;7.10;99.90
41664;DHT22;27353;50.906;7.248;2024-01-30T03:38:41;7.10;99.90
41664;DHT22;27353;50.906;7.248;2024-01-30T03:41:09;7.10;99.90
41664;DHT22;27353;50.906;7.248;2024-01-30T03:43:35;7.10;99.90
41664;DHT22;27353;50.906;7.248;2024-01-30T03:46:02;7.10;99.90
41664;DHT22;27353;50.906;7.248;2024-01-30T03:48:28;7.00;99.90
41664;DHT22;27353;50.906;7.248;2024-01-30T03:50:54;6.90;99.90
41664;DHT22;27353;50.906;7.248;2024-01-30T03:53:20;6.90;99.90
41664;DHT22;27353;50.906;7.248;2024-01-30T03:55:45;6.80;99.90
41664;DHT22;27353;50.906;7.248;2024-01-30T03:58:11;6.90;99.90
41664;DHT22;27353;50.906;7.248;2024-01-30T04:00:37;6.90;99.90
41664;DHT22;27353;50.906;7.248;2024-01-30T04:03:03;6.80;99.90
41664;DHT22;27353;50.906;7.248;2024-01-30T04:05:28;6.80;99.90
41664;DHT22;27353;50.906;7.248;2024-01-30T04:07:54;6.90;99.90
41664;DHT22;27353;50.906;7.248;2024-01-30T04:10:19;6.90;99.90
41664;DHT22;27353;50.906;7.248;2024-01-30T04:12:45;6.80;99.90
41664;DHT22;27353;50.906;7.248;2024-01-30T04:15:11;6.70;99.90
41664;DHT22;27353;50.906;7.248;2024-01-30T04:17:36;6.70;99.90
41664;DHT22;27353;50.906;7.248;2024-01-30T04:20:02;6.70;99.90
41664;DHT22;27353;50.906;7.248;2024-01-30T04:22:28;6.70;99.90
41664;DHT22;27353;50.906;7.248;2024-01-30T04:24:53;6.70;99.90
41664;DHT22;27353;50.906;7.248;2024-01-30T04:27:19;6.70;99.90
41664;DHT22;27353;50.906;7.248;2024-01-30T04:29:44;6.70;99.90
41664;DHT22;27353;50.906;7.248;2024-01-30T04:32:10;6.70;99.90
41664;DHT22;27353;50.906;7.248;2024-01-30T04:34:39;6.70;99.90
41664;DHT22;27353;50.906;7.248;2024-01-30T04:37:04;6.70;99.90
41664;DHT22;27353;50.906;7.248;2024-01-30T04:39:30;6.70;99.90
41664;DHT22;27353;50.906;7.248;2024-01-30T04:41:58;6.70;99.90
41664;DHT22;27353;50.906;7.248;2024-01-30T04:44:24;6.70;99.90
41664;DHT22;27353;50.906;7.248;2024-01-30T04:46:50;6.80;99.90
41664;DHT22;27353;50.906;7.248;2024-01-30T04:49:15;6.80;99.90
41664;DHT22;27353;50.906;7.248;2024-01-30T04:51:41;6.80;99.90
41664;DHT22;27353;50.906;7.248;2024-01-30T04:54:06;6.80;99.90
41664;DHT22;27353;50.906;7.248;2024-01-30T04:56:32;6.80;99.90
41664;DHT22;27353;50.906;7.248;2024-01-30T04:58:58;6.70;99.90
41664;DHT22;27353;50.906;7.248;2024-01-30T05:01:23;6.70;99.90
41664;DHT22;27353;50.906;7.248;2024-01-30T05:03:49;6.70;99.90
41664;DHT22;27353;50.906;7.248;2024-01-30T05:06:24;6.60;99.90
41664;DHT22;27353;50.906;7.248;2024-01-30T05:08:50;6.60;99.90
41664;DHT22;27353;50.906;7.248;2024-01-30T05:11:15;6.60;99.90
41664;DHT22;27353;50.906;7.248;2024-01-30T05:13:41;6.50;99.90
41664;DHT22;27353;50.906;7.248;2024-01-30T05:16:06;6.50;99.90
41664;DHT22;27353;50.906;7.248;2024-01-30T05:18:32;6.50;99.90
41664;DHT22;27353;50.906;7.248;2024-01-30T05:20:58;6.60;99.90
41664;DHT22;27353;50.906;7.248;2024-01-30T05:23:24;6.50;99.90
41664;DHT22;27353;50.906;7.248;2024-01-30T05:25:49;6.50;99.90
41664;DHT22;27353;50.906;7.248;2024-01-30T05:28:15;6.40;99.90
41664;DHT22;27353;50.906;7.248;2024-01-30T05:30:40;6.40;99.90
41664;DHT22;27353;50.906;7.248;2024-01-30T05:33:06;6.40;99.90
41664;DHT22;27353;50.906;7.248;2024-01-30T05:35:31;6.30;99.90
41664;DHT22;27353;50.906;7.248;2024-01-30T05:37:57;6.30;99.90
41664;DHT22;27353;50.906;7.248;2024-01-30T05:40:23;6.20;99.90
41664;DHT22;27353;50.906;7.248;2024-01-30T05:42:48;6.10;99.90
41664;DHT22;27353;50.906;7.248;2024-01-30T05:45:14;6.00;99.90
41664;DHT22;27353;50.906;7.248;2024-01-30T05:47:39;6.00;99.90
41664;DHT22;27353;50.906;7.248;2024-01-30T05:50:05;6.10;99.90
41664;DHT22;27353;50.906;7.248;2024-01-30T05:52:31;6.10;99.90
41664;DHT22;27353;50.906;7.248;2024-01-30T05:54:57;6.00;99.90
41664;DHT22;27353;50.906;7.248;2024-01-30T05:57:22;6.10;99.90
41664;DHT22;27353;50.906;7.248;2024-01-30T05:59:48;6.10;99.90
41664;DHT22;27353;50.906;7.248;2024-01-30T06:02:14;6.00;99.90
41664;DHT22;27353;50.906;7.248;2024-01-30T06:04:39;6.00;99.90
41664;DHT22;27353;50.906;7.248;2024-01-30T06:07:05;6.10;99.90
41664;DHT22;27353;50.906;7.248;2024-01-30T06:09:32;6.10;99.90
41664;DHT22;27353;50.906;7.248;2024-01-30T06:11:58;6.20;99.90
41664;DHT22;27353;50.906;7.248;2024-01-30T06:14:23;6.20;99.90
41664;DHT22;27353;50.906;7.248;2024-01-30T06:16:49;6.20;99.90
41664;DHT22;27353;50.906;7.248;2024-01-30T06:19:15;6.20;99.90
41664;DHT22;27353;50.906;7.248;2024-01-30T06:21:41;6.10;99.90
41664;DHT22;27353;50.906;7.248;2024-01-30T06:24:06;6.10;99.90
41664;DHT22;27353;50.906;7.248;2024-01-30T06:26:32;6.10;99.90
41664;DHT22;27353;50.906;7.248;2024-01-30T06:28:58;6.00;99.90
41664;DHT22;27353;50.906;7.248;2024-01-30T06:31:23;6.00;99.90
41664;DHT22;27353;50.906;7.248;2024-01-30T06:33:50;5.90;99.90
41664;DHT22;27353;50.906;7.248;2024-01-30T06:36:16;5.90;99.90
41664;DHT22;27353;50.906;7.248;2024-01-30T06:38:41;5.90;99.90
41664;DHT22;27353;50.906;7.248;2024-01-30T06:41:07;5.90;99.90
41664;DHT22;27353;50.906;7.248;2024-01-30T06:43:33;6.00;99.90
41664;DHT22;27353;50.906;7.248;2024-01-30T06:45:58;6.00;99.90
41664;DHT22;27353;50.906;7.248;2024-01-30T06:48:25;6.10;99.90
41664;DHT22;27353;50.906;7.248;2024-01-30T06:50:53;6.10;99.90
41664;DHT22;27353;50.906;7.248;2024-01-30T06:53:19;6.10;99.90
41664;DHT22;27353;50.906;7.248;2024-01-30T06:55:45;6.30;99.90
41664;DHT22;27353;50.906;7.248;2024-01-30T06:58:11;6.30;99.90
41664;DHT22;27353;50.906;7.248;2024-01-30T07:00:36;6.20;99.90
41664;DHT22;27353;50.906;7.248;2024-01-30T07:03:02;6.20;99.90
41664;DHT22;27353;50.906;7.248;2024-01-30T07:05:28;6.30;99.90
41664;DHT22;27353;50.906;7.248;2024-01-30T07:07:54;6.40;99.90
41664;DHT22;27353;50.906;7.248;2024-01-30T07:10:19;6.40;99.90
41664;DHT22;27353;50.906;7.248;2024-01-30T07:12:45;6.50;99.90
41664;DHT22;27353;50.906;7.248;2024-01-30T07:15:10;6.40;99.90
41664;DHT22;27353;50.906;7.248;2024-01-30T07:17:36;6.40;99.90
41664;DHT22;27353;50.906;7.248;2024-01-30T07:20:03;6.50;99.90
41664;DHT22;27353;50.906;7.248;2024-01-30T07:22:31;6.50;99.90
41664;DHT22;27353;50.906;7.248;2024-01-30T07:24:57;6.50;99.90
41664;DHT22;27353;50.906;7.248;2024-01-30T07:27:22;6.50;99.90
41664;DHT22;27353;50.906;7.248;2024-01-30T07:29:48;6.50;99.90
41664;DHT22;27353;50.906;7.248;2024-01-30T07:32:14;6.60;99.90
41664;DHT22;27353;50.906;7.248;2024-01-30T07:34:39;6.60;99.90
41664;DHT22;27353;50.906;7.248;2024-01-30T07:37:05;6.60;99.90
41664;DHT22;27353;50.906;7.248;2024-01-30T07:39:34;6.60;99.90
41664;DHT22;27353;50.906;7.248;2024-01-30T07:42:00;6.60;99.90
41664;DHT22;27353;50.906;7.248;2024-01-30T07:44:25;6.70;99.90
41664;DHT22;27353;50.906;7.248;2024-01-30T07:46:51;6.80;99.90
41664;DHT22;27353;50.906;7.248;2024-01-30T07:49:17;6.80;99.90
41664;DHT22;27353;50.906;7.248;2024-01-30T07:51:42;6.80;99.90
41664;DHT22;27353;50.906;7.248;2024-01-30T07:54:11;6.80;99.90
41664;DHT22;27353;50.906;7.248;2024-01-30T08:03:05;7.00;99.90
41664;DHT22;27353;50.906;7.248;2024-01-30T08:05:30;7.10;99.90
41664;DHT22;27353;50.906;7.248;2024-01-30T08:07:56;7.20;99.90
41664;DHT22;27353;50.906;7.248;2024-01-30T08:10:22;7.20;99.90
41664;DHT22;27353;50.906;7.248;2024-01-30T08:12:47;7.30;99.90
41664;DHT22;27353;50.906;7.248;2024-01-30T08:15:13;7.30;99.90
41664;DHT22;27353;50.906;7.248;2024-01-30T08:17:39;7.40;99.90
41664;DHT22;27353;50.906;7.248;2024-01-30T08:20:06;7.40;99.90
41664;DHT22;27353;50.906;7.248;2024-01-30T08:22:33;7.50;99.90
41664;DHT22;27353;50.906;7.248;2024-01-30T08:24:59;7.50;99.90
41664;DHT22;27353;50.906;7.248;2024-01-30T08:27:24;7.50;99.90
41664;DHT22;27353;50.906;7.248;2024-01-30T08:29:50;7.50;99.90
41664;DHT22;27353;50.906;7.248;2024-01-30T08:32:16;7.50;99.90
41664;DHT22;27353;50.906;7.248;2024-01-30T08:34:41;7.50;99.90
41664;DHT22;27353;50.906;7.248;2024-01-30T08:37:07;7.50;99.90
41664;DHT22;27353;50.906;7.248;2024-01-30T08:39:33;7.50;99.90
41664;DHT22;27353;50.906;7.248;2024-01-30T08:41:58;7.50;99.90
41664;DHT22;27353;50.906;7.248;2024-01-30T08:44:24;7.60;99.90
41664;DHT22;27353;50.906;7.248;2024-01-30T08:46:50;7.60;99.90
41664;DHT22;27353;50.906;7.248;2024-01-30T08:49:20;7.70;99.90
41664;DHT22;27353;50.906;7.248;2024-01-30T08:51:46;7.70;99.90
41664;DHT22;27353;50.906;7.248;2024-01-30T08:54:12;7.70;99.90
41664;DHT22;27353;50.906;7.248;2024-01-30T08:56:38;7.70;99.90
41664;DHT22;27353;50.906;7.248;2024-01-30T08:59:03;7.70;99.90
41664;DHT22;27353;50.906;7.248;2024-01-30T09:01:29;7.70;99.90
41664;DHT22;27353;50.906;7.248;2024-01-30T09:03:55;7.80;99.90
41664;DHT22;27353;50.906;7.248;2024-01-30T09:06:20;7.80;99.90
41664;DHT22;27353;50.906;7.248;2024-01-30T09:08:46;7.90;99.90
41664;DHT22;27353;50.906;7.248;2024-01-30T09:11:13;8.10;99.90
41664;DHT22;27353;50.906;7.248;2024-01-30T09:13:39;8.20;99.90
41664;DHT22;27353;50.906;7.248;2024-01-30T09:16:05;8.40;99.90
41664;DHT22;27353;50.906;7.248;2024-01-30T09:18:30;8.70;99.90
41664;DHT22;27353;50.906;7.248;2024-01-30T09:20:56;9.10;99.90
41664;DHT22;27353;50.906;7.248;2024-01-30T09:23:22;9.40;99.90
41664;DHT22;27353;50.906;7.248;2024-01-30T09:25:48;9.80;99.90
41664;DHT22;27353;50.906;7.248;2024-01-30T09:28:13;10.10;99.90
41664;DHT22;27353;50.906;7.248;2024-01-30T09:30:39;10.20;99.90
41664;DHT22;27353;50.906;7.248;2024-01-30T09:33:06;10.30;99.90
41664;DHT22;27353;50.906;7.248;2024-01-30T09:35:31;10.30;99.90
41664;DHT22;27353;50.906;7.248;2024-01-30T09:37:57;10.30;99.90
41664;DHT22;27353;50.906;7.248;2024-01-30T09:40:23;10.40;99.90
41664;DHT22;27353;50.906;7.248;2024-01-30T09:42:50;10.40;99.90
41664;DHT22;27353;50.906;7.248;2024-01-30T09:45:18;10.40;99.90
41664;DHT22;27353;50.906;7.248;2024-01-30T09:47:45;10.40;99.90
41664;DHT22;27353;50.906;7.248;2024-01-30T09:50:13;10.50;99.90
41664;DHT22;27353;50.906;7.248;2024-01-30T09:52:39;11.00;99.90
41664;DHT22;27353;50.906;7.248;2024-01-30T09:55:06;11.60;99.90
41664;DHT22;27353;50.906;7.248;2024-01-30T09:57:32;12.10;99.90
41664;DHT22;27353;50.906;7.248;2024-01-30T09:59:58;12.50;99.90
41664;DHT22;27353;50.906;7.248;2024-01-30T10:02:23;12.70;99.90
41664;DHT22;27353;50.906;7.248;2024-01-30T10:04:50;12.40;99.90
41664;DHT22;27353;50.906;7.248;2024-01-30T10:07:17;12.70;99.90
41664;DHT22;27353;50.906;7.248;2024-01-30T10:09:42;12.50;99.90
41664;DHT22;27353;50.906;7.248;2024-01-30T10:12:11;12.90;99.90
41664;DHT22;27353;50.906;7.248;2024-01-30T10:14:40;13.00;99.90
41664;DHT22;27353;50.906;7.248;2024-01-30T10:17:09;13.10;99.90
41664;DHT22;27353;50.906;7.248;2024-01-30T10:19:40;12.60;99.90
41664;DHT22;27353;50.906;7.248;2024-01-30T10:22:06;12.20;99.90
41664;DHT22;27353;50.906;7.248;2024-01-30T10:24:33;11.80;99.90
41664;DHT22;27353;50.906;7.248;2024-01-30T10:26:59;11.90;99.90
41664;DHT22;27353;50.906;7.248;2024-01-30T10:29:25;12.10;99.90
41664;DHT22;27353;50.906;7.248;2024-01-30T10:32:04;12.80;99.90
41664;DHT22;27353;50.906;7.248;2024-01-30T10:34:30;13.60;99.90
41664;DHT22;27353;50.906;7.248;2024-01-30T10:37:11;14.50;99.90
41664;DHT22;27353;50.906;7.248;2024-01-30T10:39:46;15.10;99.90
41664;DHT22;27353;50.906;7.248;2024-01-30T10:42:17;14.50;99.90
41664;DHT22;27353;50.906;7.248;2024-01-30T10:45:02;14.20;99.90
41664;DHT22;27353;50.906;7.248;2024-01-30T10:47:30;14.10;99.90
41664;DHT22;27353;50.906;7.248;2024-01-30T10:49:56;13.50;99.90
41664;DHT22;27353;50.906;7.248;2024-01-30T10:52:25;13.40;99.90
41664;DHT22;27353;50.906;7.248;2024-01-30T10:54:53;13.20;99.90
41664;DHT22;27353;50.906;7.248;2024-01-30T10:57:19;12.60;99.90
41664;DHT22;27353;50.906;7.248;2024-01-30T10:59:47;12.00;99.90
41664;DHT22;27353;50.906;7.248;2024-01-30T11:02:14;11.80;99.90
41664;DHT22;27353;50.906;7.248;2024-01-30T11:04:42;11.70;99.90
41664;DHT22;27353;50.906;7.248;2024-01-30T11:07:15;11.40;99.90
41664;DHT22;27353;50.906;7.248;2024-01-30T11:09:51;11.30;99.90
41664;DHT22;27353;50.906;7.248;2024-01-30T11:12:24;11.30;99.90
41664;DHT22;27353;50.906;7.248;2024-01-30T11:15:03;11.30;99.90
41664;DHT22;27353;50.906;7.248;2024-01-30T11:17:43;11.20;99.90
41664;DHT22;27353;50.906;7.248;2024-01-30T11:20:20;11.20;99.90
41664;DHT22;27353;50.906;7.248;2024-01-30T11:22:47;11.20;99.90
41664;DHT22;27353;50.906;7.248;2024-01-30T11:25:17;11.20;99.90
41664;DHT22;27353;50.906;7.248;2024-01-30T11:27:44;11.20;99.90
41664;DHT22;27353;50.906;7.248;2024-01-30T11:30:10;11.30;99.90
41664;DHT22;27353;50.906;7.248;2024-01-30T11:32:36;11.40;99.90
41664;DHT22;27353;50.906;7.248;2024-01-30T11:35:06;11.40;99.90
41664;DHT22;27353;50.906;7.248;2024-01-30T11:37:32;11.50;99.90
41664;DHT22;27353;50.906;7.248;2024-01-30T11:40:02;11.50;99.90
41664;DHT22;27353;50.906;7.248;2024-01-30T11:42:30;11.60;99.90
41664;DHT22;27353;50.906;7.248;2024-01-30T11:44:56;11.40;99.90
41664;DHT22;27353;50.906;7.248;2024-01-30T11:47:22;11.50;99.90
41664;DHT22;27353;50.906;7.248;2024-01-30T11:49:48;11.50;99.90
41664;DHT22;27353;50.906;7.248;2024-01-30T11:52:14;11.50;99.90
41664;DHT22;27353;50.906;7.248;2024-01-30T11:54:40;11.50;99.90
41664;DHT22;27353;50.906;7.248;2024-01-30T11:57:05;11.50;99.90
41664;DHT22;27353;50.906;7.248;2024-01-30T11:59:31;11.60;99.90
41664;DHT22;27353;50.906;7.248;2024-01-30T12:01:56;11.70;99.90
41664;DHT22;27353;50.906;7.248;2024-01-30T12:04:22;11.80;99.90
41664;DHT22;27353;50.906;7.248;2024-01-30T12:06:51;11.80;99.90
41664;DHT22;27353;50.906;7.248;2024-01-30T12:09:17;12.10;99.90
41664;DHT22;27353;50.906;7.248;2024-01-30T12:11:49;12.20;99.90
41664;DHT22;27353;50.906;7.248;2024-01-30T12:14:16;12.30;99.90
41664;DHT22;27353;50.906;7.248;2024-01-30T12:16:42;12.40;99.90
41664;DHT22;27353;50.906;7.248;2024-01-30T12:19:08;12.40;99.90
41664;DHT22;27353;50.906;7.248;2024-01-30T12:21:34;12.60;99.90
41664;DHT22;27353;50.906;7.248;2024-01-30T12:24:00;13.00;99.90
41664;DHT22;27353;50.906;7.248;2024-01-30T12:26:26;13.10;99.90
41664;DHT22;27353;50.906;7.248;2024-01-30T12:28:54;13.40;99.90
41664;DHT22;27353;50.906;7.248;2024-01-30T12:31:28;13.40;99.90
41664;DHT22;27353;50.906;7.248;2024-01-30T12:33:54;13.40;99.90
41664;DHT22;27353;50.906;7.248;2024-01-30T12:36:21;13.30;99.90
41664;DHT22;27353;50.906;7.248;2024-01-30T12:38:47;13.70;99.90
41664;DHT22;27353;50.906;7.248;2024-01-30T12:41:13;13.90;99.90
41664;DHT22;27353;50.906;7.248;2024-01-30T12:43:38;14.00;99.90
41664;DHT22;27353;50.906;7.248;2024-01-30T12:46:04;13.90;99.90
41664;DHT22;27353;50.906;7.248;2024-01-30T12:48:31;14.00;99.90
41664;DHT22;27353;50.906;7.248;2024-01-30T12:50:56;13.90;99.90
41664;DHT22;27353;50.906;7.248;2024-01-30T12:53:22;13.60;99.90
41664;DHT22;27353;50.906;7.248;2024-01-30T12:55:48;13.40;99.90
41664;DHT22;27353;50.906;7.248;2024-01-30T12:58:15;13.40;99.90
41664;DHT22;27353;50.906;7.248;2024-01-30T13:00:41;13.30;99.90
41664;DHT22;27353;50.906;7.248;2024-01-30T13:03:09;13.20;99.90
41664;DHT22;27353;50.906;7.248;2024-01-30T13:05:35;13.10;99.90
41664;DHT22;27353;50.906;7.248;2024-01-30T13:08:00;13.00;99.90
41664;DHT22;27353;50.906;7.248;2024-01-30T13:10:26;12.90;99.90
41664;DHT22;27353;50.906;7.248;2024-01-30T13:12:52;12.90;99.90
41664;DHT22;27353;50.906;7.248;2024-01-30T13:15:18;12.90;99.90
41664;DHT22;27353;50.906;7.248;2024-01-30T13:17:44;12.90;99.90
41664;DHT22;27353;50.906;7.248;2024-01-30T13:20:12;12.80;99.90
41664;DHT22;27353;50.906;7.248;2024-01-30T13:22:39;12.70;99.90
41664;DHT22;27353;50.906;7.248;2024-01-30T13:25:05;12.60;99.90
41664;DHT22;27353;50.906;7.248;2024-01-30T13:27:32;12.60;99.90
41664;DHT22;27353;50.906;7.248;2024-01-30T13:29:58;12.60;99.90
41664;DHT22;27353;50.906;7.248;2024-01-30T13:32:23;12.70;99.90
41664;DHT22;27353;50.906;7.248;2024-01-30T13:34:49;12.80;99.90
41664;DHT22;27353;50.906;7.248;2024-01-30T13:37:14;12.80;99.90
41664;DHT22;27353;50.906;7.248;2024-01-30T13:39:40;12.90;99.90
41664;DHT22;27353;50.906;7.248;2024-01-30T13:42:05;12.90;99.90
41664;DHT22;27353;50.906;7.248;2024-01-30T13:44:31;12.90;99.90
41664;DHT22;27353;50.906;7.248;2024-01-30T13:46:57;12.80;99.90
41664;DHT22;27353;50.906;7.248;2024-01-30T13:49:23;12.70;99.90
41664;DHT22;27353;50.906;7.248;2024-01-30T13:51:48;12.50;99.90
41664;DHT22;27353;50.906;7.248;2024-01-30T13:54:14;12.50;99.90
41664;DHT22;27353;50.906;7.248;2024-01-30T13:56:40;12.40;99.90
41664;DHT22;27353;50.906;7.248;2024-01-30T13:59:06;12.30;99.90
41664;DHT22;27353;50.906;7.248;2024-01-30T14:01:32;12.30;99.90
41664;DHT22;27353;50.906;7.248;2024-01-30T14:03:58;12.30;99.90
41664;DHT22;27353;50.906;7.248;2024-01-30T14:06:24;12.20;99.90
41664;DHT22;27353;50.906;7.248;2024-01-30T14:08:49;12.10;99.90
41664;DHT22;27353;50.906;7.248;2024-01-30T14:11:15;12.00;99.90
41664;DHT22;27353;50.906;7.248;2024-01-30T14:13:41;12.10;99.90
41664;DHT22;27353;50.906;7.248;2024-01-30T14:16:06;12.00;99.90
41664;DHT22;27353;50.906;7.248;2024-01-30T14:18:32;12.10;99.90
41664;DHT22;27353;50.906;7.248;2024-01-30T14:20:58;12.10;99.90
41664;DHT22;27353;50.906;7.248;2024-01-30T14:23:23;12.00;99.90
41664;DHT22;27353;50.906;7.248;2024-01-30T14:25:49;12.10;99.90
41664;DHT22;27353;50.906;7.248;2024-01-30T14:28:16;12.10;99.90
41664;DHT22;27353;50.906;7.248;2024-01-30T14:30:42;12.20;99.90
41664;DHT22;27353;50.906;7.248;2024-01-30T14:33:07;12.20;99.90
41664;DHT22;27353;50.906;7.248;2024-01-30T14:35:33;12.20;99.90
41664;DHT22;27353;50.906;7.248;2024-01-30T14:37:59;12.10;99.90
41664;DHT22;27353;50.906;7.248;2024-01-30T14:40:25;12.00;99.90
41664;DHT22;27353;50.906;7.248;2024-01-30T14:42:50;12.00;99.90
41664;DHT22;27353;50.906;7.248;2024-01-30T14:45:16;11.90;99.90
41664;DHT22;27353;50.906;7.248;2024-01-30T14:47:42;11.90;99.90
41664;DHT22;27353;50.906;7.248;2024-01-30T14:50:08;11.90;99.90
41664;DHT22;27353;50.906;7.248;2024-01-30T14:52:34;11.90;99.90
41664;DHT22;27353;50.906;7.248;2024-01-30T14:54:59;11.80;99.90
41664;DHT22;27353;50.906;7.248;2024-01-30T14:57:25;11.70;99.90
41664;DHT22;27353;50.906;7.248;2024-01-30T14:59:51;11.70;99.90
41664;DHT22;27353;50.906;7.248;2024-01-30T15:02:17;11.70;99.90
41664;DHT22;27353;50.906;7.248;2024-01-30T15:04:42;11.60;99.90
41664;DHT22;27353;50.906;7.248;2024-01-30T15:07:08;11.70;99.90
41664;DHT22;27353;50.906;7.248;2024-01-30T15:09:34;11.60;99.90
41664;DHT22;27353;50.906;7.248;2024-01-30T15:12:00;11.60;99.90
41664;DHT22;27353;50.906;7.248;2024-01-30T15:14:25;11.60;99.90
41664;DHT22;27353;50.906;7.248;2024-01-30T15:16:51;11.50;99.90
41664;DHT22;27353;50.906;7.248;2024-01-30T15:19:16;11.50;99.90
41664;DHT22;27353;50.906;7.248;2024-01-30T15:21:42;11.40;99.90
41664;DHT22;27353;50.906;7.248;2024-01-30T15:24:08;11.50;99.90
41664;DHT22;27353;50.906;7.248;2024-01-30T15:26:34;11.50;99.90
41664;DHT22;27353;50.906;7.248;2024-01-30T15:28:59;11.40;99.90
41664;DHT22;27353;50.906;7.248;2024-01-30T15:31:25;11.40;99.90
41664;DHT22;27353;50.906;7.248;2024-01-30T15:33:50;11.30;99.90
41664;DHT22;27353;50.906;7.248;2024-01-30T15:36:16;11.30;99.90
41664;DHT22;27353;50.906;7.248;2024-01-30T15:38:42;11.30;99.90
41664;DHT22;27353;50.906;7.248;2024-01-30T15:41:08;11.30;99.90